createdAt,value
2023-02-22T00:01:50.582Z,100913.33
2023-02-22T00:04:21.116Z,100914.20
2023-02-22T00:06:48.891Z,100914.93
2023-02-22T00:09:20.470Z,100912.31
2023-02-22T00:11:48.755Z,100916.55
2023-02-22T00:14:20.211Z,100912.65
2023-02-22T00:16:47.251Z,100911.59
2023-02-22T00:19:14.565Z,100915.33
2023-02-22T00:21:41.777Z,100918.66
2023-02-22T00:24:23.034Z,100919.19
2023-02-22T00:26:57.678Z,100911.70
2023-02-22T00:29:25.484Z,100915.73
2023-02-22T00:31:52.686Z,100915.16
2023-02-22T00:34:19.730Z,100910.31
2023-02-22T00:36:48.632Z,100911.27
2023-02-22T00:39:15.954Z,100906.05
2023-02-22T00:41:43.437Z,100905.14
2023-02-22T00:44:10.716Z,100904.80
2023-02-22T00:46:37.946Z,100903.64
2023-02-22T00:49:05.251Z,100901.19
2023-02-22T00:51:33.809Z,100901.16
2023-02-22T00:54:00.710Z,100897.07
2023-02-22T00:56:27.780Z,100898.54
2023-02-22T00:58:54.946Z,100897.40
2023-02-22T01:01:24.119Z,100892.55
2023-02-22T01:03:51.600Z,100891.86
2023-02-22T01:06:19.029Z,100889.60
2023-02-22T01:08:47.013Z,100888.10
2023-02-22T01:11:15.996Z,100885.90
2023-02-22T01:13:45.264Z,100885.96
2023-02-22T01:16:12.426Z,100882.88
2023-02-22T01:18:39.712Z,100882.16
2023-02-22T01:21:06.923Z,100877.70
2023-02-22T01:23:33.973Z,100876.59
2023-02-22T01:26:01.355Z,100879.08
2023-02-22T01:28:29.155Z,100877.68
2023-02-22T01:30:56.814Z,100870.72
2023-02-22T01:33:23.760Z,100867.89
2023-02-22T01:35:51.194Z,100864.89
2023-02-22T01:38:18.387Z,100863.45
2023-02-22T01:40:49.479Z,100858.16
2023-02-22T01:43:28.048Z,100860.84
2023-02-22T01:46:08.147Z,100861.38
2023-02-22T01:48:38.722Z,100859.12
2023-02-22T01:51:11.138Z,100855.89
2023-02-22T01:53:50.822Z,100859.51
2023-02-22T01:56:19.220Z,100857.06
2023-02-22T01:58:50.927Z,100856.97
2023-02-22T02:01:19.880Z,100857.30
2023-02-22T02:03:49.123Z,100854.21
2023-02-22T02:06:16.851Z,100854.70
2023-02-22T02:09:14.768Z,100851.18
2023-02-22T02:11:42.099Z,100852.73
2023-02-22T02:14:10.551Z,100847.93
2023-02-22T02:16:43.581Z,100844.11
2023-02-22T02:19:39.788Z,100842.19
2023-02-22T02:22:19.454Z,100835.92
2023-02-22T02:25:05.093Z,100837.27
2023-02-22T02:28:01.417Z,100834.20
2023-02-22T02:30:59.620Z,100833.12
2023-02-22T02:33:44.809Z,100835.46
2023-02-22T02:36:17.565Z,100834.21
2023-02-22T02:38:54.492Z,100836.45
2023-02-22T02:41:33.690Z,100833.72
2023-02-22T02:44:05.754Z,100832.29
2023-02-22T02:46:37.236Z,100829.41
2023-02-22T02:49:15.424Z,100827.30
2023-02-22T02:51:47.241Z,100820.83
2023-02-22T02:54:15.244Z,100814.77
2023-02-22T02:56:45.265Z,100815.92
2023-02-22T02:59:33.609Z,100811.02
2023-02-22T03:02:30.866Z,100814.37
2023-02-22T03:05:07.381Z,100814.45
2023-02-22T03:07:49.938Z,100815.09
2023-02-22T03:10:19.885Z,100814.63
2023-02-22T03:13:05.063Z,100814.46
2023-02-22T03:15:53.258Z,100814.49
2023-02-22T03:18:42.813Z,100811.14
2023-02-22T03:21:27.583Z,100807.68
2023-02-22T03:24:10.272Z,100803.17
2023-02-22T03:27:11.754Z,100801.66
2023-02-22T03:29:43.220Z,100797.27
2023-02-22T03:32:15.910Z,100800.13
2023-02-22T03:34:52.595Z,100798.02
2023-02-22T03:37:23.561Z,100795.14
2023-02-22T03:39:54.725Z,100794.18
2023-02-22T03:42:26.017Z,100791.80
2023-02-22T03:44:57.831Z,100792.19
2023-02-22T03:47:37.782Z,100787.38
2023-02-22T03:50:35.707Z,100788.27
2023-02-22T03:53:03.733Z,100786.34
2023-02-22T03:55:31.417Z,100784.73
2023-02-22T03:57:59.968Z,100785.70
2023-02-22T04:00:30.583Z,100784.72
2023-02-22T04:02:57.799Z,100788.84
2023-02-22T04:05:26.073Z,100785.92
2023-02-22T04:07:54.185Z,100785.69
2023-02-22T04:10:21.307Z,100787.75
2023-02-22T04:12:48.616Z,100780.96
2023-02-22T04:15:18.540Z,100780.75
2023-02-22T04:17:45.720Z,100779.12
2023-02-22T04:20:13.606Z,100775.44
2023-02-22T04:22:41.205Z,100774.77
2023-02-22T04:25:08.629Z,100771.97
2023-02-22T04:27:35.685Z,100771.92
2023-02-22T04:30:02.863Z,100774.66
2023-02-22T04:32:30.118Z,100771.86
2023-02-22T04:34:57.108Z,100773.40
2023-02-22T04:37:24.422Z,100770.90
2023-02-22T04:39:51.632Z,100767.56
2023-02-22T04:42:19.275Z,100768.57
2023-02-22T04:44:46.168Z,100765.72
2023-02-22T04:47:13.148Z,100765.02
2023-02-22T04:49:40.002Z,100762.98
2023-02-22T04:52:06.999Z,100767.02
2023-02-22T04:54:34.213Z,100764.90
2023-02-22T04:57:01.214Z,100767.88
2023-02-22T04:59:28.356Z,100765.30
2023-02-22T05:01:55.554Z,100764.63
2023-02-22T05:04:22.758Z,100762.77
2023-02-22T05:06:49.843Z,100763.44
2023-02-22T05:09:16.882Z,100768.44
2023-02-22T05:11:43.792Z,100765.80
2023-02-22T05:14:10.892Z,100765.93
2023-02-22T05:16:38.008Z,100765.83
2023-02-22T05:19:04.962Z,100763.27
2023-02-22T05:21:31.923Z,100758.65
2023-02-22T05:23:58.946Z,100758.36
2023-02-22T05:26:26.031Z,100757.38
2023-02-22T05:28:53.440Z,100761.20
2023-02-22T05:31:20.661Z,100761.23
2023-02-22T05:33:48.405Z,100759.16
2023-02-22T05:36:16.712Z,100753.19
2023-02-22T05:38:45.088Z,100749.09
2023-02-22T05:41:13.369Z,100746.67
2023-02-22T05:43:41.045Z,100748.50
2023-02-22T05:46:08.285Z,100745.20
2023-02-22T05:48:35.245Z,100740.80
2023-02-22T05:51:02.667Z,100744.08
2023-02-22T05:53:29.443Z,100739.60
2023-02-22T05:55:56.322Z,100741.86
2023-02-22T05:58:23.749Z,100740.17
2023-02-22T06:00:50.873Z,100738.73
2023-02-22T06:03:17.890Z,100736.39
2023-02-22T06:05:45.247Z,100733.54
2023-02-22T06:08:12.278Z,100727.76
2023-02-22T06:10:39.350Z,100730.95
2023-02-22T06:13:06.849Z,100733.48
2023-02-22T06:15:34.087Z,100735.27
2023-02-22T06:18:01.840Z,100732.53
2023-02-22T06:20:30.258Z,100733.22
2023-02-22T06:22:59.022Z,100734.19
2023-02-22T06:25:27.954Z,100731.20
2023-02-22T06:27:54.893Z,100730.73
2023-02-22T06:30:24.254Z,100730.25
2023-02-22T06:32:51.423Z,100729.96
2023-02-22T06:35:18.987Z,100726.42
2023-02-22T06:37:45.782Z,100725.38
2023-02-22T06:40:13.250Z,100721.22
2023-02-22T06:42:40.383Z,100719.34
2023-02-22T06:45:08.444Z,100724.27
2023-02-22T06:47:39.760Z,100725.92
2023-02-22T06:50:07.596Z,100725.88
2023-02-22T06:52:34.576Z,100732.55
2023-02-22T06:55:01.416Z,100734.29
2023-02-22T06:57:28.271Z,100732.48
2023-02-22T06:59:55.399Z,100729.23
2023-02-22T07:02:22.252Z,100732.02
2023-02-22T07:04:49.420Z,100733.20
2023-02-22T07:07:16.852Z,100735.95
2023-02-22T07:09:46.546Z,100733.35
2023-02-22T07:12:13.705Z,100738.25
2023-02-22T07:14:40.378Z,100735.57
2023-02-22T07:17:07.635Z,100733.30
2023-02-22T07:19:34.770Z,100730.88
2023-02-22T07:22:01.879Z,100732.60
2023-02-22T07:24:28.889Z,100735.23
2023-02-22T07:27:01.338Z,100737.27
2023-02-22T07:29:28.237Z,100736.58
2023-02-22T07:31:55.726Z,100736.88
2023-02-22T07:34:22.914Z,100733.69
2023-02-22T07:36:49.998Z,100735.89
2023-02-22T07:39:17.179Z,100732.93
2023-02-22T07:41:44.105Z,100730.59
2023-02-22T07:44:11.064Z,100733.62
2023-02-22T07:46:37.825Z,100733.27
2023-02-22T07:49:05.251Z,100732.02
2023-02-22T07:51:33.091Z,100730.08
2023-02-22T07:54:00.249Z,100724.39
2023-02-22T07:56:26.928Z,100721.46
2023-02-22T07:58:54.515Z,100728.55
2023-02-22T08:01:21.624Z,100729.49
2023-02-22T08:03:48.548Z,100730.09
2023-02-22T08:06:15.459Z,100724.30
2023-02-22T08:08:42.821Z,100725.95
2023-02-22T08:11:09.949Z,100721.05
2023-02-22T08:13:38.464Z,100719.23
2023-02-22T08:16:05.731Z,100719.04
2023-02-22T08:18:32.574Z,100719.66
2023-02-22T08:20:59.277Z,100718.81
2023-02-22T08:23:26.958Z,100716.59
2023-02-22T08:25:54.426Z,100712.57
2023-02-22T08:28:23.599Z,100716.63
2023-02-22T08:30:51.749Z,100713.13
2023-02-22T08:33:20.043Z,100710.44
2023-02-22T08:35:51.690Z,100709.41
2023-02-22T08:38:28.516Z,100712.09
2023-02-22T08:40:55.935Z,100708.48
2023-02-22T08:43:23.397Z,100709.00
2023-02-22T08:45:51.561Z,100702.98
2023-02-22T08:48:19.128Z,100700.80
2023-02-22T08:50:46.668Z,100702.84
2023-02-22T08:53:15.238Z,100702.98
2023-02-22T08:55:43.093Z,100701.73
2023-02-22T08:58:10.607Z,100701.80
2023-02-22T09:00:39.152Z,100699.88
2023-02-22T09:03:13.093Z,100698.29
2023-02-22T09:05:40.676Z,100699.64
2023-02-22T09:08:07.373Z,100695.77
2023-02-22T09:10:35.054Z,100695.59
2023-02-22T09:13:02.535Z,100689.97
2023-02-22T09:15:30.112Z,100689.16
2023-02-22T09:17:57.490Z,100687.86
2023-02-22T09:20:25.026Z,100689.35
2023-02-22T09:22:53.093Z,100688.94
2023-02-22T09:25:22.786Z,100683.64
2023-02-22T09:27:51.305Z,100678.16
2023-02-22T09:30:33.354Z,100675.55
2023-02-22T09:33:03.588Z,100675.06
2023-02-22T09:35:30.730Z,100673.61
2023-02-22T09:37:58.958Z,100673.27
2023-02-22T09:40:30.086Z,100674.46
2023-02-22T09:43:08.098Z,100673.05
2023-02-22T09:45:44.921Z,100674.37
2023-02-22T09:48:21.775Z,100671.54
2023-02-22T09:50:52.866Z,100669.00
2023-02-22T09:53:30.859Z,100669.49
2023-02-22T09:56:04.609Z,100666.17
2023-02-22T09:58:36.715Z,100670.98
2023-02-22T10:01:32.027Z,100666.66
2023-02-22T10:04:18.719Z,100667.14
2023-02-22T10:07:14.211Z,100671.83
2023-02-22T10:09:43.385Z,100673.77
2023-02-22T10:12:15.217Z,100667.41
2023-02-22T10:15:13.083Z,100666.49
2023-02-22T10:18:17.509Z,100664.89
2023-02-22T10:21:02.379Z,100665.62
2023-02-22T10:23:55.966Z,100663.82
2023-02-22T10:26:26.780Z,100653.89
2023-02-22T10:29:17.360Z,100652.76
2023-02-22T10:31:52.374Z,100649.74
2023-02-22T10:34:29.815Z,100646.98
2023-02-22T10:37:18.085Z,100642.06
2023-02-22T10:39:46.782Z,100637.79
2023-02-22T10:42:13.934Z,100632.51
2023-02-22T10:44:40.820Z,100629.04
2023-02-22T10:47:10.878Z,100625.41
2023-02-22T10:49:44.431Z,100625.23
2023-02-22T10:52:20.179Z,100623.75
2023-02-22T10:54:50.299Z,100620.39
2023-02-22T10:57:22.894Z,100616.30
2023-02-22T10:59:51.995Z,100614.41
2023-02-22T11:02:21.462Z,100613.63
2023-02-22T11:04:53.559Z,100604.40
2023-02-22T11:07:29.872Z,100606.50
2023-02-22T11:09:59.957Z,100602.45
2023-02-22T11:12:29.930Z,100600.52
2023-02-22T11:14:57.160Z,100600.56
2023-02-22T11:17:34.600Z,100593.39
2023-02-22T11:20:01.715Z,100590.71
2023-02-22T11:22:41.195Z,100588.13
2023-02-22T11:25:08.658Z,100585.33
2023-02-22T11:27:40.302Z,100586.92
2023-02-22T11:30:17.678Z,100587.58
2023-02-22T11:32:48.444Z,100583.12
2023-02-22T11:35:29.905Z,100581.03
2023-02-22T11:38:12.373Z,100573.36
2023-02-22T11:40:40.158Z,100569.98
2023-02-22T11:43:12.049Z,100568.48
2023-02-22T11:45:44.153Z,100564.21
2023-02-22T11:48:21.005Z,100558.78
2023-02-22T11:51:16.509Z,100552.88
2023-02-22T11:54:25.438Z,100547.99
2023-02-22T11:56:55.854Z,100544.04
2023-02-22T12:00:01.806Z,100547.09
2023-02-22T12:02:57.169Z,100537.25
2023-02-22T12:05:40.498Z,100538.07
2023-02-22T12:08:36.723Z,100536.70
2023-02-22T12:11:10.133Z,100537.43
2023-02-22T12:13:59.664Z,100531.69
2023-02-22T12:16:45.026Z,100534.55
2023-02-22T12:19:34.987Z,100529.73
2023-02-22T12:22:09.935Z,100527.04
2023-02-22T12:24:46.826Z,100523.67
2023-02-22T12:27:37.050Z,100522.95
2023-02-22T12:30:12.864Z,100519.25
2023-02-22T12:32:50.709Z,100518.41
2023-02-22T12:35:37.403Z,100513.33
2023-02-22T12:38:25.860Z,100512.76
2023-02-22T12:40:57.107Z,100513.84
2023-02-22T12:43:35.607Z,100512.98
2023-02-22T12:46:21.220Z,100511.11
2023-02-22T12:49:00.718Z,100511.55
2023-02-22T12:51:55.533Z,100509.09
2023-02-22T12:54:31.781Z,100505.89
2023-02-22T12:57:09.923Z,100508.03
2023-02-22T12:59:47.753Z,100503.71
2023-02-22T13:02:37.000Z,100504.80
2023-02-22T13:05:03.823Z,100498.67
2023-02-22T13:07:46.566Z,100500.39
2023-02-22T13:10:19.307Z,100494.98
2023-02-22T13:12:52.536Z,100494.46
2023-02-22T13:15:42.876Z,100492.27
2023-02-22T13:18:19.298Z,100487.88
2023-02-22T13:20:59.037Z,100482.70
2023-02-22T13:23:39.060Z,100478.03
2023-02-22T13:26:36.243Z,100474.80
2023-02-22T13:29:13.794Z,100473.79
2023-02-22T13:31:54.857Z,100467.14
2023-02-22T13:34:45.515Z,100462.60
2023-02-22T13:37:27.809Z,100459.76
2023-02-22T13:40:16.877Z,100455.81
2023-02-22T13:42:59.703Z,100453.58
2023-02-22T13:45:50.939Z,100449.45
2023-02-22T13:48:33.916Z,100448.05
2023-02-22T13:51:30.188Z,100449.23
2023-02-22T13:54:07.543Z,100444.69
2023-02-22T13:56:34.832Z,100442.49
2023-02-22T13:59:04.268Z,100439.24
2023-02-22T14:01:47.927Z,100436.89
2023-02-22T14:04:22.880Z,100435.77
2023-02-22T14:07:25.810Z,100437.64
2023-02-22T14:09:57.502Z,100432.73
2023-02-22T14:12:30.256Z,100425.87
2023-02-22T14:15:28.733Z,100429.30
2023-02-22T14:18:02.274Z,100428.85
2023-02-22T14:20:37.118Z,100424.23
2023-02-22T14:23:25.817Z,100425.59
2023-02-22T14:25:53.527Z,100421.68
2023-02-22T14:28:37.325Z,100422.40
2023-02-22T14:31:25.513Z,100421.10
2023-02-22T14:34:13.967Z,100418.36
2023-02-22T14:37:08.022Z,100422.01
2023-02-22T14:39:51.203Z,100419.02
2023-02-22T14:42:34.023Z,100417.08
2023-02-22T14:45:37.001Z,100414.56
2023-02-22T14:48:46.966Z,100408.70
2023-02-22T14:51:34.114Z,100410.17
2023-02-22T14:54:42.148Z,100408.92
2023-02-22T14:57:35.927Z,100405.86
2023-02-22T15:00:29.633Z,100403.82
2023-02-22T15:03:06.907Z,100400.80
2023-02-22T15:05:45.842Z,100403.30
2023-02-22T15:08:31.597Z,100403.25
2023-02-22T15:11:52.347Z,100403.64
2023-02-22T15:14:43.783Z,100396.91
2023-02-22T15:17:54.534Z,100392.70
2023-02-22T15:20:54.623Z,100393.87
2023-02-22T15:23:32.751Z,100391.83
2023-02-22T15:26:07.823Z,100391.65
2023-02-22T15:29:04.638Z,100389.95
2023-02-22T15:31:39.265Z,100384.67
2023-02-22T15:34:24.647Z,100389.64
2023-02-22T15:36:58.745Z,100388.78
2023-02-22T15:39:33.172Z,100387.91
2023-02-22T15:42:05.980Z,100387.64
2023-02-22T15:44:40.153Z,100390.97
2023-02-22T15:47:21.055Z,100390.32
2023-02-22T15:50:21.317Z,100384.23
2023-02-22T15:52:59.465Z,100385.33
2023-02-22T15:55:38.269Z,100387.30
2023-02-22T15:58:16.959Z,100381.61
2023-02-22T16:00:47.093Z,100381.80
2023-02-22T16:03:16.794Z,100382.35
2023-02-22T16:05:49.503Z,100385.16
2023-02-22T16:08:19.408Z,100386.50
2023-02-22T16:11:02.331Z,100386.30
2023-02-22T16:13:33.174Z,100386.81
2023-02-22T16:16:23.589Z,100390.10
2023-02-22T16:18:51.527Z,100388.73
2023-02-22T16:21:23.642Z,100395.58
2023-02-22T16:24:01.349Z,100396.54
2023-02-22T16:26:34.446Z,100395.52
2023-02-22T16:29:07.494Z,100394.41
2023-02-22T16:31:36.976Z,100396.30
2023-02-22T16:34:09.072Z,100395.46
2023-02-22T16:36:45.479Z,100396.28
2023-02-22T16:39:19.597Z,100397.14
2023-02-22T16:41:46.706Z,100401.41
2023-02-22T16:44:13.699Z,100396.77
2023-02-22T16:46:41.950Z,100397.73
2023-02-22T16:49:13.148Z,100397.46
2023-02-22T16:51:47.578Z,100397.22
2023-02-22T16:54:19.753Z,100401.98
2023-02-22T16:56:46.477Z,100401.80
2023-02-22T16:59:15.413Z,100396.79
2023-02-22T17:01:42.961Z,100402.66
2023-02-22T17:04:15.934Z,100403.49
2023-02-22T17:06:42.689Z,100409.33
2023-02-22T17:09:10.017Z,100409.15
2023-02-22T17:11:37.910Z,100408.54
2023-02-22T17:14:05.828Z,100412.31
2023-02-22T17:16:32.873Z,100411.38
2023-02-22T17:19:00.157Z,100412.13
2023-02-22T17:21:27.130Z,100417.50
2023-02-22T17:23:54.069Z,100416.34
2023-02-22T17:26:20.868Z,100416.08
2023-02-22T17:28:47.544Z,100417.69
2023-02-22T17:31:26.557Z,100419.30
2023-02-22T17:33:55.034Z,100420.27
2023-02-22T17:36:23.478Z,100418.77
2023-02-22T17:38:50.228Z,100420.11
2023-02-22T17:41:16.713Z,100424.44
2023-02-22T17:43:43.777Z,100420.31
2023-02-22T17:46:10.591Z,100425.92
2023-02-22T17:48:38.194Z,100431.61
2023-02-22T17:51:06.917Z,100433.50
2023-02-22T17:53:33.976Z,100436.38
2023-02-22T17:56:06.127Z,100436.38
2023-02-22T17:58:33.270Z,100438.42
2023-02-22T18:01:00.277Z,100440.84
2023-02-22T18:03:29.049Z,100439.05
2023-02-22T18:05:58.018Z,100442.33
2023-02-22T18:08:29.770Z,100442.94
2023-02-22T18:10:56.901Z,100441.04
2023-02-22T18:13:26.461Z,100441.14
2023-02-22T18:15:53.699Z,100439.96
2023-02-22T18:18:22.207Z,100438.97
2023-02-22T18:20:51.606Z,100436.31
2023-02-22T18:23:22.264Z,100438.09
2023-02-22T18:26:08.967Z,100435.20
2023-02-22T18:28:37.616Z,100435.85
2023-02-22T18:31:15.702Z,100434.27
2023-02-22T18:33:43.665Z,100435.58
2023-02-22T18:36:14.206Z,100437.88
2023-02-22T18:38:43.010Z,100438.90
2023-02-22T18:41:12.234Z,100437.02
2023-02-22T18:43:39.885Z,100438.92
2023-02-22T18:46:15.043Z,100438.16
2023-02-22T18:48:42.883Z,100437.09
2023-02-22T18:51:11.792Z,100437.56
2023-02-22T18:53:40.963Z,100433.34
2023-02-22T18:56:10.532Z,100433.52
2023-02-22T18:58:38.845Z,100432.98
2023-02-22T19:01:07.279Z,100428.46
2023-02-22T19:03:38.378Z,100429.05
2023-02-22T19:06:10.694Z,100425.71
2023-02-22T19:08:42.518Z,100421.98
2023-02-22T19:11:19.057Z,100422.35
2023-02-22T19:13:47.488Z,100422.52
2023-02-22T19:16:16.558Z,100420.46
2023-02-22T19:18:44.159Z,100421.67
2023-02-22T19:21:13.892Z,100421.65
2023-02-22T19:23:48.277Z,100422.30
2023-02-22T19:26:20.618Z,100420.98
2023-02-22T19:29:04.991Z,100419.82
2023-02-22T19:31:33.922Z,100417.35
2023-02-22T19:34:03.811Z,100415.18
2023-02-22T19:36:35.317Z,100415.39
2023-02-22T19:39:02.257Z,100411.63
2023-02-22T19:41:29.604Z,100406.77
2023-02-22T19:43:56.751Z,100414.28
2023-02-22T19:46:24.902Z,100414.45
2023-02-22T19:48:52.936Z,100413.54
2023-02-22T19:51:26.386Z,100415.79
2023-02-22T19:53:55.894Z,100418.19
2023-02-22T19:56:27.226Z,100418.49
2023-02-22T19:58:56.568Z,100418.13
2023-02-22T20:01:26.423Z,100418.30
2023-02-22T20:03:55.132Z,100415.60
2023-02-22T20:06:26.297Z,100415.40
2023-02-22T20:08:54.677Z,100412.40
2023-02-22T20:11:22.843Z,100415.33
2023-02-22T20:13:50.337Z,100413.13
2023-02-22T20:16:17.299Z,100415.40
2023-02-22T20:18:45.275Z,100415.53
2023-02-22T20:21:18.657Z,100421.47
2023-02-22T20:23:49.209Z,100422.55
2023-02-22T20:26:26.434Z,100423.70
2023-02-22T20:28:55.207Z,100422.98
2023-02-22T20:31:23.043Z,100423.08
2023-02-22T20:33:53.971Z,100421.92
2023-02-22T20:36:24.219Z,100423.71
2023-02-22T20:38:56.786Z,100424.11
2023-02-22T20:41:26.987Z,100427.27
2023-02-22T20:43:55.712Z,100431.20
2023-02-22T20:46:23.840Z,100432.25
2023-02-22T20:48:55.686Z,100430.98
2023-02-22T20:51:23.371Z,100430.86
2023-02-22T20:53:54.053Z,100433.30
2023-02-22T20:56:23.817Z,100430.84
2023-02-22T20:58:52.654Z,100429.19
2023-02-22T21:01:20.832Z,100429.15
2023-02-22T21:03:48.677Z,100428.95
2023-02-22T21:06:17.036Z,100427.93
2023-02-22T21:08:45.245Z,100425.38
2023-02-22T21:11:14.628Z,100427.41
2023-02-22T21:13:41.715Z,100428.06
2023-02-22T21:16:15.258Z,100425.70
2023-02-22T21:18:42.210Z,100423.88
2023-02-22T21:21:10.434Z,100423.41
2023-02-22T21:23:38.485Z,100421.55
2023-02-22T21:26:05.334Z,100420.42
2023-02-22T21:28:50.607Z,100420.97
2023-02-22T21:31:19.188Z,100421.80
2023-02-22T21:33:49.456Z,100423.48
2023-02-22T21:36:16.549Z,100417.27
2023-02-22T21:38:53.337Z,100418.91
2023-02-22T21:41:21.615Z,100417.06
2023-02-22T21:43:52.169Z,100416.38
2023-02-22T21:46:20.019Z,100413.37
2023-02-22T21:48:50.250Z,100411.02
2023-02-22T21:51:19.970Z,100413.58
2023-02-22T21:53:49.446Z,100413.51
2023-02-22T21:56:19.005Z,100412.45
2023-02-22T21:58:47.039Z,100411.81
2023-02-22T22:01:17.587Z,100409.05
2023-02-22T22:03:45.830Z,100411.08
2023-02-22T22:06:13.960Z,100408.73
2023-02-22T22:08:42.207Z,100410.23
2023-02-22T22:11:14.875Z,100409.08
2023-02-22T22:13:42.539Z,100409.15
2023-02-22T22:16:18.624Z,100407.33
2023-02-22T22:18:46.764Z,100405.47
2023-02-22T22:21:22.672Z,100406.68
2023-02-22T22:23:54.176Z,100407.44
2023-02-22T22:26:24.443Z,100404.66
2023-02-22T22:28:54.384Z,100406.03
2023-02-22T22:31:23.722Z,100401.45
2023-02-22T22:33:50.907Z,100404.58
2023-02-22T22:36:21.240Z,100407.30
2023-02-22T22:38:48.466Z,100409.44
2023-02-22T22:41:17.665Z,100404.70
2023-02-22T22:43:48.220Z,100404.35
2023-02-22T22:46:16.825Z,100409.40
2023-02-22T22:48:46.799Z,100411.02
2023-02-22T22:51:21.200Z,100412.30
2023-02-22T22:53:49.709Z,100416.77
2023-02-22T22:56:57.237Z,100420.27
2023-02-22T22:59:24.320Z,100424.45
2023-02-22T23:01:52.356Z,100417.71
2023-02-22T23:04:19.260Z,100416.33
2023-02-22T23:06:49.866Z,100417.20
2023-02-22T23:09:21.672Z,100415.30
2023-02-22T23:11:56.995Z,100419.32
2023-02-22T23:14:30.974Z,100420.83
2023-02-22T23:17:03.141Z,100418.53
2023-02-22T23:19:35.555Z,100421.91
2023-02-22T23:22:05.223Z,100421.07
2023-02-22T23:24:36.022Z,100419.32
2023-02-22T23:27:06.912Z,100422.50
2023-02-22T23:29:36.730Z,100424.25
2023-02-22T23:32:05.750Z,100424.77
2023-02-22T23:34:32.940Z,100423.13
2023-02-22T23:36:59.882Z,100422.73
2023-02-22T23:39:27.381Z,100422.98
2023-02-22T23:42:01.719Z,100424.92
2023-02-22T23:44:29.472Z,100423.95
2023-02-22T23:46:56.874Z,100424.94
2023-02-22T23:49:27.165Z,100423.85
2023-02-22T23:51:54.059Z,100426.62
2023-02-22T23:54:25.350Z,100427.80
2023-02-22T23:57:02.415Z,100429.73
2023-02-22T23:59:30.500Z,100431.58
